South Wardsboro, Vermont
Current Conditions -  °F | °C
As of 4:54 AM on Saturday 01 Nov 2014 (Local Time) from KDDH Reporting Station
Overcast Overcast  
Wind Chill:   Ceiling: 7000
Heat Index:   Visibility: 10mi
Dew Point: -1°   Wind: 0mph
Humidity: 60%   Direction: NA
Pressure: 29.92"   Gusts: NA
Location:  43.0205°N, 72.8064°W
Report Text: KDDH 010854Z AUTO 00000KT 10SM OVC070 07/M01 A2992 RMK AO2 SLP134 T00671006 55008
Loading
Personal Weather Stations






























Interactive Weather Map
Tropical Storm Tracking
New forecast layout! Learn more

10-Day Weather Forecast

Advertisements
Track Severe Weather on mobile